sensor_id;sensor_type;location;lat;lon;timestamp;pressure;altitude;pressure_sealevel;temperature;humidity
41264;BME280;26998;48.714;9.414;2022-08-02T00:00:09;98962.81;;;16.65;100.00
41264;BME280;26998;48.714;9.414;2022-08-02T00:02:36;98965.16;;;16.61;100.00
41264;BME280;26998;48.714;9.414;2022-08-02T00:05:04;98965.38;;;16.60;100.00
41264;BME280;26998;48.714;9.414;2022-08-02T00:07:31;98961.88;;;16.59;100.00
41264;BME280;26998;48.714;9.414;2022-08-02T00:10:05;98967.75;;;16.56;100.00
41264;BME280;26998;48.714;9.414;2022-08-02T00:12:33;98961.31;;;16.57;100.00
41264;BME280;26998;48.714;9.414;2022-08-02T00:15:05;98948.97;;;16.61;100.00
41264;BME280;26998;48.714;9.414;2022-08-02T00:17:32;98957.06;;;16.61;100.00
41264;BME280;26998;48.714;9.414;2022-08-02T00:19:59;98959.66;;;16.56;100.00
41264;BME280;26998;48.714;9.414;2022-08-02T00:22:25;98957.88;;;16.50;100.00
41264;BME280;26998;48.714;9.414;2022-08-02T00:24:52;98958.25;;;16.42;100.00
41264;BME280;26998;48.714;9.414;2022-08-02T00:27:18;98953.88;;;16.41;100.00
41264;BME280;26998;48.714;9.414;2022-08-02T00:29:45;98964.56;;;16.36;100.00
41264;BME280;26998;48.714;9.414;2022-08-02T00:32:21;98966.91;;;16.32;100.00
41264;BME280;26998;48.714;9.414;2022-08-02T00:34:48;98973.59;;;16.30;100.00
41264;BME280;26998;48.714;9.414;2022-08-02T00:37:16;98973.34;;;16.31;100.00
41264;BME280;26998;48.714;9.414;2022-08-02T00:39:43;98970.53;;;16.26;100.00
41264;BME280;26998;48.714;9.414;2022-08-02T00:42:09;98977.09;;;16.30;100.00
41264;BME280;26998;48.714;9.414;2022-08-02T00:44:39;98985.66;;;16.27;100.00
41264;BME280;26998;48.714;9.414;2022-08-02T00:47:07;98985.41;;;16.29;100.00
41264;BME280;26998;48.714;9.414;2022-08-02T00:49:34;98984.38;;;16.30;100.00
41264;BME280;26998;48.714;9.414;2022-08-02T00:52:01;98974.88;;;16.27;100.00
41264;BME280;26998;48.714;9.414;2022-08-02T00:54:27;98980.84;;;16.17;100.00
41264;BME280;26998;48.714;9.414;2022-08-02T00:56:54;98979.19;;;16.16;100.00
41264;BME280;26998;48.714;9.414;2022-08-02T00:59:21;98972.75;;;16.17;100.00
41264;BME280;26998;48.714;9.414;2022-08-02T01:01:49;98969.91;;;16.12;100.00
41264;BME280;26998;48.714;9.414;2022-08-02T01:04:26;98961.38;;;16.15;100.00
41264;BME280;26998;48.714;9.414;2022-08-02T01:06:58;98966.16;;;16.13;100.00
41264;BME280;26998;48.714;9.414;2022-08-02T01:09:27;98964.88;;;16.16;100.00
41264;BME280;26998;48.714;9.414;2022-08-02T01:11:55;98961.81;;;16.12;100.00
41264;BME280;26998;48.714;9.414;2022-08-02T01:14:22;98953.53;;;16.14;100.00
41264;BME280;26998;48.714;9.414;2022-08-02T01:17:21;98956.66;;;16.23;100.00
41264;BME280;26998;48.714;9.414;2022-08-02T01:19:57;98957.84;;;16.15;100.00
41264;BME280;26998;48.714;9.414;2022-08-02T01:25:37;98963.09;;;15.98;100.00
41264;BME280;26998;48.714;9.414;2022-08-02T01:33:51;98980.03;;;15.87;100.00
41264;BME280;26998;48.714;9.414;2022-08-02T01:36:23;98981.31;;;15.84;100.00
41264;BME280;26998;48.714;9.414;2022-08-02T01:38:53;98977.81;;;15.84;100.00
41264;BME280;26998;48.714;9.414;2022-08-02T01:41:22;98978.25;;;15.81;100.00
41264;BME280;26998;48.714;9.414;2022-08-02T01:43:54;98984.38;;;15.88;100.00
41264;BME280;26998;48.714;9.414;2022-08-02T01:46:22;98989.41;;;15.84;100.00
41264;BME280;26998;48.714;9.414;2022-08-02T01:48:52;98986.50;;;15.86;100.00
41264;BME280;26998;48.714;9.414;2022-08-02T01:51:22;98993.97;;;15.84;100.00
41264;BME280;26998;48.714;9.414;2022-08-02T01:54:00;98989.13;;;15.74;100.00
41264;BME280;26998;48.714;9.414;2022-08-02T01:56:28;98996.03;;;15.70;100.00
41264;BME280;26998;48.714;9.414;2022-08-02T01:59:15;98995.44;;;15.68;100.00
41264;BME280;26998;48.714;9.414;2022-08-02T02:01:46;98986.28;;;15.69;100.00
41264;BME280;26998;48.714;9.414;2022-08-02T02:04:16;98993.72;;;15.74;100.00
41264;BME280;26998;48.714;9.414;2022-08-02T02:06:44;98996.63;;;15.72;100.00
41264;BME280;26998;48.714;9.414;2022-08-02T02:09:13;99004.41;;;15.62;100.00
41264;BME280;26998;48.714;9.414;2022-08-02T02:11:42;98994.97;;;15.53;100.00
41264;BME280;26998;48.714;9.414;2022-08-02T02:14:29;98998.94;;;15.50;100.00
41264;BME280;26998;48.714;9.414;2022-08-02T02:16:58;99007.63;;;15.52;100.00
41264;BME280;26998;48.714;9.414;2022-08-02T02:19:26;99002.25;;;15.52;100.00
41264;BME280;26998;48.714;9.414;2022-08-02T02:21:54;99007.25;;;15.48;100.00
41264;BME280;26998;48.714;9.414;2022-08-02T02:24:22;99004.34;;;15.50;100.00
41264;BME280;26998;48.714;9.414;2022-08-02T02:26:50;99006.41;;;15.48;100.00
41264;BME280;26998;48.714;9.414;2022-08-02T02:29:20;98998.66;;;15.40;100.00
41264;BME280;26998;48.714;9.414;2022-08-02T02:31:48;98998.28;;;15.36;100.00
41264;BME280;26998;48.714;9.414;2022-08-02T02:34:25;98993.94;;;15.35;100.00
41264;BME280;26998;48.714;9.414;2022-08-02T02:36:55;98998.28;;;15.36;100.00
41264;BME280;26998;48.714;9.414;2022-08-02T02:39:22;98994.78;;;15.36;100.00
41264;BME280;26998;48.714;9.414;2022-08-02T02:41:50;98993.56;;;15.32;100.00
41264;BME280;26998;48.714;9.414;2022-08-02T02:44:19;99000.00;;;15.31;100.00
41264;BME280;26998;48.714;9.414;2022-08-02T02:46:49;98991.31;;;15.29;100.00
41264;BME280;26998;48.714;9.414;2022-08-02T02:49:18;99000.47;;;15.28;100.00
41264;BME280;26998;48.714;9.414;2022-08-02T02:51:46;98995.97;;;15.21;100.00
41264;BME280;26998;48.714;9.414;2022-08-02T02:54:14;98990.88;;;15.32;100.00
41264;BME280;26998;48.714;9.414;2022-08-02T02:57:02;99004.06;;;15.21;100.00
41264;BME280;26998;48.714;9.414;2022-08-02T02:59:29;98997.59;;;15.22;100.00
41264;BME280;26998;48.714;9.414;2022-08-02T03:01:57;99002.19;;;15.22;100.00
41264;BME280;26998;48.714;9.414;2022-08-02T03:04:26;98999.72;;;15.20;100.00
41264;BME280;26998;48.714;9.414;2022-08-02T03:07:13;99000.31;;;15.22;100.00
41264;BME280;26998;48.714;9.414;2022-08-02T03:09:42;98993.56;;;15.13;100.00
41264;BME280;26998;48.714;9.414;2022-08-02T03:12:09;98989.84;;;15.14;100.00
41264;BME280;26998;48.714;9.414;2022-08-02T03:14:41;98996.72;;;15.10;100.00
41264;BME280;26998;48.714;9.414;2022-08-02T03:17:08;98986.19;;;15.09;100.00
41264;BME280;26998;48.714;9.414;2022-08-02T03:19:35;98987.59;;;15.11;100.00
41264;BME280;26998;48.714;9.414;2022-08-02T03:22:01;98985.38;;;15.08;100.00
41264;BME280;26998;48.714;9.414;2022-08-02T03:24:28;98981.97;;;15.13;100.00
41264;BME280;26998;48.714;9.414;2022-08-02T03:26:54;98985.88;;;15.17;100.00
41264;BME280;26998;48.714;9.414;2022-08-02T03:29:21;98987.59;;;15.11;100.00
41264;BME280;26998;48.714;9.414;2022-08-02T03:31:47;98987.06;;;15.02;100.00
41264;BME280;26998;48.714;9.414;2022-08-02T03:34:15;98984.16;;;15.04;100.00
41264;BME280;26998;48.714;9.414;2022-08-02T03:36:42;98989.53;;;15.04;100.00
41264;BME280;26998;48.714;9.414;2022-08-02T03:39:10;98990.13;;;15.06;100.00
41264;BME280;26998;48.714;9.414;2022-08-02T03:41:40;98992.66;;;15.01;100.00
41264;BME280;26998;48.714;9.414;2022-08-02T03:44:09;98992.09;;;14.99;100.00
41264;BME280;26998;48.714;9.414;2022-08-02T03:46:36;98987.44;;;15.06;100.00
41264;BME280;26998;48.714;9.414;2022-08-02T03:49:05;98997.75;;;15.09;100.00
41264;BME280;26998;48.714;9.414;2022-08-02T03:51:33;98997.16;;;15.07;100.00
41264;BME280;26998;48.714;9.414;2022-08-02T03:54:01;98987.81;;;15.10;100.00
41264;BME280;26998;48.714;9.414;2022-08-02T03:56:28;99001.88;;;15.12;100.00
41264;BME280;26998;48.714;9.414;2022-08-02T03:59:06;99000.22;;;15.11;100.00
41264;BME280;26998;48.714;9.414;2022-08-02T04:01:32;99000.91;;;15.06;100.00
41264;BME280;26998;48.714;9.414;2022-08-02T04:03:59;98998.44;;;15.05;100.00
41264;BME280;26998;48.714;9.414;2022-08-02T04:06:25;99003.34;;;15.08;100.00
41264;BME280;26998;48.714;9.414;2022-08-02T04:08:53;98998.22;;;15.06;100.00
41264;BME280;26998;48.714;9.414;2022-08-02T04:11:20;98997.16;;;15.07;100.00
41264;BME280;26998;48.714;9.414;2022-08-02T04:13:46;99009.34;;;15.10;100.00
41264;BME280;26998;48.714;9.414;2022-08-02T04:16:28;99016.16;;;15.12;100.00
41264;BME280;26998;48.714;9.414;2022-08-02T04:18:59;99014.06;;;15.14;100.00
41264;BME280;26998;48.714;9.414;2022-08-02T04:21:30;99020.84;;;15.17;100.00
41264;BME280;26998;48.714;9.414;2022-08-02T04:24:19;99022.81;;;15.10;100.00
41264;BME280;26998;48.714;9.414;2022-08-02T04:26:50;99031.34;;;15.07;100.00
41264;BME280;26998;48.714;9.414;2022-08-02T04:29:18;99026.56;;;15.09;100.00
41264;BME280;26998;48.714;9.414;2022-08-02T04:31:45;99042.47;;;15.10;100.00
41264;BME280;26998;48.714;9.414;2022-08-02T04:34:12;99032.16;;;15.07;100.00
41264;BME280;26998;48.714;9.414;2022-08-02T04:36:41;99038.75;;;15.11;100.00
41264;BME280;26998;48.714;9.414;2022-08-02T04:39:07;99044.97;;;15.12;100.00
41264;BME280;26998;48.714;9.414;2022-08-02T04:41:43;99041.88;;;15.08;100.00
41264;BME280;26998;48.714;9.414;2022-08-02T04:44:11;99041.44;;;15.11;100.00
41264;BME280;26998;48.714;9.414;2022-08-02T04:46:39;99042.03;;;15.13;100.00
41264;BME280;26998;48.714;9.414;2022-08-02T04:49:06;99040.31;;;15.19;100.00
41264;BME280;26998;48.714;9.414;2022-08-02T04:51:37;99045.69;;;15.19;100.00
41264;BME280;26998;48.714;9.414;2022-08-02T04:54:06;99046.00;;;15.29;100.00
41264;BME280;26998;48.714;9.414;2022-08-02T04:56:36;99047.50;;;15.25;100.00
41264;BME280;26998;48.714;9.414;2022-08-02T04:59:02;99042.94;;;15.25;100.00
41264;BME280;26998;48.714;9.414;2022-08-02T05:01:29;99041.97;;;15.38;100.00
41264;BME280;26998;48.714;9.414;2022-08-02T05:03:55;99038.81;;;15.78;100.00
41264;BME280;26998;48.714;9.414;2022-08-02T05:06:22;99035.00;;;15.86;100.00
41264;BME280;26998;48.714;9.414;2022-08-02T05:08:49;99031.72;;;16.14;100.00
41264;BME280;26998;48.714;9.414;2022-08-02T05:11:18;99020.28;;;16.54;100.00
41264;BME280;26998;48.714;9.414;2022-08-02T05:13:45;99013.97;;;16.72;100.00
41264;BME280;26998;48.714;9.414;2022-08-02T05:16:25;99006.59;;;17.26;100.00
41264;BME280;26998;48.714;9.414;2022-08-02T05:18:58;98999.78;;;17.12;100.00
41264;BME280;26998;48.714;9.414;2022-08-02T05:21:25;99001.13;;;17.49;100.00
41264;BME280;26998;48.714;9.414;2022-08-02T05:23:51;99000.69;;;17.69;100.00
41264;BME280;26998;48.714;9.414;2022-08-02T05:26:18;98996.44;;;17.45;100.00
41264;BME280;26998;48.714;9.414;2022-08-02T05:28:45;98999.63;;;17.42;100.00
41264;BME280;26998;48.714;9.414;2022-08-02T05:31:11;99003.47;;;17.58;100.00
41264;BME280;26998;48.714;9.414;2022-08-02T05:33:39;98999.84;;;17.40;100.00
41264;BME280;26998;48.714;9.414;2022-08-02T05:36:06;99000.25;;;17.32;100.00
41264;BME280;26998;48.714;9.414;2022-08-02T05:38:32;98997.66;;;17.25;100.00
41264;BME280;26998;48.714;9.414;2022-08-02T05:41:02;98996.59;;;17.26;100.00
41264;BME280;26998;48.714;9.414;2022-08-02T05:43:29;99010.28;;;17.48;100.00
41264;BME280;26998;48.714;9.414;2022-08-02T05:45:55;99000.84;;;17.63;100.00
41264;BME280;26998;48.714;9.414;2022-08-02T05:48:22;99008.84;;;17.58;100.00
41264;BME280;26998;48.714;9.414;2022-08-02T05:51:01;99004.13;;;17.13;100.00
41264;BME280;26998;48.714;9.414;2022-08-02T05:56:23;99016.25;;;16.98;100.00
41264;BME280;26998;48.714;9.414;2022-08-02T05:59:04;99013.75;;;17.08;100.00
41264;BME280;26998;48.714;9.414;2022-08-02T06:01:39;99017.75;;;17.29;100.00
41264;BME280;26998;48.714;9.414;2022-08-02T06:04:08;99016.06;;;17.40;100.00
41264;BME280;26998;48.714;9.414;2022-08-02T06:06:36;99016.25;;;17.50;100.00
41264;BME280;26998;48.714;9.414;2022-08-02T06:09:08;99009.06;;;17.68;100.00
41264;BME280;26998;48.714;9.414;2022-08-02T06:11:37;99015.06;;;17.70;100.00
41264;BME280;26998;48.714;9.414;2022-08-02T06:14:05;99011.38;;;17.76;100.00
41264;BME280;26998;48.714;9.414;2022-08-02T06:16:33;99012.56;;;17.68;100.00
41264;BME280;26998;48.714;9.414;2022-08-02T06:19:07;99008.69;;;17.76;100.00
41264;BME280;26998;48.714;9.414;2022-08-02T06:21:35;99006.56;;;17.78;100.00
41264;BME280;26998;48.714;9.414;2022-08-02T06:24:22;99004.59;;;18.02;100.00
41264;BME280;26998;48.714;9.414;2022-08-02T06:26:49;99012.25;;;18.22;100.00
41264;BME280;26998;48.714;9.414;2022-08-02T06:29:19;99005.38;;;18.48;100.00
41264;BME280;26998;48.714;9.414;2022-08-02T06:31:48;98998.50;;;18.57;100.00
41264;BME280;26998;48.714;9.414;2022-08-02T06:34:17;99001.38;;;18.51;100.00
41264;BME280;26998;48.714;9.414;2022-08-02T06:36:53;99005.47;;;18.70;100.00
41264;BME280;26998;48.714;9.414;2022-08-02T06:39:33;99005.78;;;18.90;100.00
41264;BME280;26998;48.714;9.414;2022-08-02T06:42:11;99004.47;;;18.93;100.00
41264;BME280;26998;48.714;9.414;2022-08-02T06:44:38;98990.19;;;18.98;100.00
41264;BME280;26998;48.714;9.414;2022-08-02T06:47:15;98996.38;;;19.15;100.00
41264;BME280;26998;48.714;9.414;2022-08-02T06:49:41;98994.34;;;19.22;100.00
41264;BME280;26998;48.714;9.414;2022-08-02T06:52:20;98990.34;;;19.30;100.00
41264;BME280;26998;48.714;9.414;2022-08-02T06:54:54;98985.50;;;19.32;100.00
41264;BME280;26998;48.714;9.414;2022-08-02T06:57:21;98981.13;;;19.53;100.00
41264;BME280;26998;48.714;9.414;2022-08-02T06:59:47;98981.03;;;19.65;100.00
41264;BME280;26998;48.714;9.414;2022-08-02T07:02:14;98978.94;;;19.99;100.00
41264;BME280;26998;48.714;9.414;2022-08-02T07:04:41;98983.78;;;19.92;100.00
41264;BME280;26998;48.714;9.414;2022-08-02T07:07:07;98984.00;;;19.90;100.00
41264;BME280;26998;48.714;9.414;2022-08-02T07:09:34;98977.56;;;19.69;100.00
41264;BME280;26998;48.714;9.414;2022-08-02T07:12:01;98988.13;;;19.93;100.00
41264;BME280;26998;48.714;9.414;2022-08-02T07:14:27;98984.38;;;19.99;100.00
41264;BME280;26998;48.714;9.414;2022-08-02T07:16:54;98986.91;;;20.38;100.00
41264;BME280;26998;48.714;9.414;2022-08-02T07:19:20;98982.00;;;20.35;100.00
41264;BME280;26998;48.714;9.414;2022-08-02T07:22:01;98989.63;;;20.38;100.00
41264;BME280;26998;48.714;9.414;2022-08-02T07:24:27;98982.00;;;20.67;100.00
41264;BME280;26998;48.714;9.414;2022-08-02T07:26:54;98977.72;;;20.76;100.00
41264;BME280;26998;48.714;9.414;2022-08-02T07:29:36;98986.44;;;20.83;100.00
41264;BME280;26998;48.714;9.414;2022-08-02T07:32:23;98988.81;;;20.69;100.00
41264;BME280;26998;48.714;9.414;2022-08-02T07:34:50;98987.94;;;21.01;100.00
41264;BME280;26998;48.714;9.414;2022-08-02T07:37:22;98987.63;;;20.97;100.00
41264;BME280;26998;48.714;9.414;2022-08-02T07:40:10;98986.25;;;20.95;98.95
41264;BME280;26998;48.714;9.414;2022-08-02T07:42:43;98983.81;;;21.41;97.04
41264;BME280;26998;48.714;9.414;2022-08-02T07:45:11;98993.44;;;21.69;94.43
41264;BME280;26998;48.714;9.414;2022-08-02T07:47:42;98977.25;;;21.37;91.91
41264;BME280;26998;48.714;9.414;2022-08-02T07:50:12;98972.81;;;21.99;89.60
41264;BME280;26998;48.714;9.414;2022-08-02T07:52:40;98982.00;;;21.67;85.38
41264;BME280;26998;48.714;9.414;2022-08-02T07:55:08;98980.72;;;22.05;82.68
41264;BME280;26998;48.714;9.414;2022-08-02T07:57:40;98985.94;;;22.48;80.62
41264;BME280;26998;48.714;9.414;2022-08-02T08:00:12;98986.22;;;22.26;82.74
41264;BME280;26998;48.714;9.414;2022-08-02T08:02:39;98977.97;;;22.05;79.84
41264;BME280;26998;48.714;9.414;2022-08-02T08:05:06;98976.34;;;21.99;80.48
41264;BME280;26998;48.714;9.414;2022-08-02T08:07:33;98976.97;;;22.37;80.40
41264;BME280;26998;48.714;9.414;2022-08-02T08:10:04;98988.41;;;22.19;82.23
41264;BME280;26998;48.714;9.414;2022-08-02T08:12:30;98986.97;;;22.11;81.55
41264;BME280;26998;48.714;9.414;2022-08-02T08:14:58;98986.19;;;22.21;81.11
41264;BME280;26998;48.714;9.414;2022-08-02T08:17:24;98990.84;;;22.30;82.94
41264;BME280;26998;48.714;9.414;2022-08-02T08:19:52;98988.13;;;22.51;83.04
41264;BME280;26998;48.714;9.414;2022-08-02T08:22:19;98985.38;;;22.61;80.32
41264;BME280;26998;48.714;9.414;2022-08-02T08:24:46;98983.50;;;22.41;78.32
41264;BME280;26998;48.714;9.414;2022-08-02T08:27:12;98980.19;;;22.90;79.01
41264;BME280;26998;48.714;9.414;2022-08-02T08:29:40;98984.03;;;22.64;79.40
41264;BME280;26998;48.714;9.414;2022-08-02T08:32:09;98977.50;;;22.59;79.91
41264;BME280;26998;48.714;9.414;2022-08-02T08:34:46;98989.19;;;22.80;80.33
41264;BME280;26998;48.714;9.414;2022-08-02T08:37:13;98988.28;;;23.31;77.06
41264;BME280;26998;48.714;9.414;2022-08-02T08:39:47;98985.28;;;23.27;74.54
41264;BME280;26998;48.714;9.414;2022-08-02T08:42:27;98987.19;;;23.27;72.09
41264;BME280;26998;48.714;9.414;2022-08-02T08:44:54;98982.38;;;23.68;71.15
41264;BME280;26998;48.714;9.414;2022-08-02T08:47:24;98990.53;;;23.03;72.42
41264;BME280;26998;48.714;9.414;2022-08-02T08:50:02;98983.13;;;23.14;73.46
41264;BME280;26998;48.714;9.414;2022-08-02T08:52:34;98988.75;;;23.48;72.61
41264;BME280;26998;48.714;9.414;2022-08-02T08:55:03;98986.19;;;23.78;71.07
41264;BME280;26998;48.714;9.414;2022-08-02T08:57:30;98984.75;;;23.90;66.35
41264;BME280;26998;48.714;9.414;2022-08-02T08:59:58;98976.97;;;24.08;67.47
41264;BME280;26998;48.714;9.414;2022-08-02T09:02:26;98978.16;;;23.96;63.61
41264;BME280;26998;48.714;9.414;2022-08-02T09:04:54;98967.88;;;23.83;67.31
41264;BME280;26998;48.714;9.414;2022-08-02T09:07:24;98974.19;;;24.18;68.03
41264;BME280;26998;48.714;9.414;2022-08-02T09:09:50;98971.34;;;24.33;66.57
41264;BME280;26998;48.714;9.414;2022-08-02T09:12:18;98965.88;;;24.68;66.21
41264;BME280;26998;48.714;9.414;2022-08-02T09:14:46;98975.88;;;25.06;64.50
41264;BME280;26998;48.714;9.414;2022-08-02T09:17:16;98976.88;;;25.40;64.28
41264;BME280;26998;48.714;9.414;2022-08-02T09:19:43;98968.78;;;25.72;63.12
41264;BME280;26998;48.714;9.414;2022-08-02T09:22:12;98975.94;;;25.49;59.09
41264;BME280;26998;48.714;9.414;2022-08-02T09:24:42;98975.91;;;25.73;60.80
41264;BME280;26998;48.714;9.414;2022-08-02T09:27:19;98971.69;;;25.38;61.32
41264;BME280;26998;48.714;9.414;2022-08-02T09:29:51;98979.53;;;25.45;61.39
41264;BME280;26998;48.714;9.414;2022-08-02T09:32:45;98968.19;;;25.32;61.85
41264;BME280;26998;48.714;9.414;2022-08-02T09:35:12;98967.97;;;25.05;61.12
41264;BME280;26998;48.714;9.414;2022-08-02T09:37:38;98963.88;;;25.50;59.84
41264;BME280;26998;48.714;9.414;2022-08-02T09:40:05;98957.34;;;25.70;63.05
41264;BME280;26998;48.714;9.414;2022-08-02T09:42:33;98949.94;;;25.71;61.07
41264;BME280;26998;48.714;9.414;2022-08-02T09:45:01;98952.50;;;26.19;59.87
41264;BME280;26998;48.714;9.414;2022-08-02T09:47:29;98954.13;;;25.63;63.32
41264;BME280;26998;48.714;9.414;2022-08-02T09:49:57;98952.69;;;25.28;62.63
41264;BME280;26998;48.714;9.414;2022-08-02T09:52:27;98944.88;;;25.40;63.67
41264;BME280;26998;48.714;9.414;2022-08-02T09:55:10;98949.47;;;25.64;61.78
41264;BME280;26998;48.714;9.414;2022-08-02T09:57:36;98941.56;;;25.62;62.08
41264;BME280;26998;48.714;9.414;2022-08-02T10:00:06;98943.31;;;25.53;62.02
41264;BME280;26998;48.714;9.414;2022-08-02T10:03:07;98945.88;;;26.06;60.84
41264;BME280;26998;48.714;9.414;2022-08-02T10:05:47;98942.81;;;26.59;58.02
41264;BME280;26998;48.714;9.414;2022-08-02T10:08:23;98944.72;;;25.69;59.97
41264;BME280;26998;48.714;9.414;2022-08-02T10:10:50;98945.78;;;26.30;61.45
41264;BME280;26998;48.714;9.414;2022-08-02T10:13:17;98944.19;;;25.91;59.87
41264;BME280;26998;48.714;9.414;2022-08-02T10:15:47;98952.78;;;26.55;57.59
41264;BME280;26998;48.714;9.414;2022-08-02T10:18:16;98951.25;;;26.63;56.42
41264;BME280;26998;48.714;9.414;2022-08-02T10:21:06;98953.28;;;26.38;56.72
41264;BME280;26998;48.714;9.414;2022-08-02T10:23:33;98941.41;;;26.76;55.38
41264;BME280;26998;48.714;9.414;2022-08-02T10:26:03;98951.22;;;27.09;53.73
41264;BME280;26998;48.714;9.414;2022-08-02T10:28:30;98943.94;;;27.32;53.94
41264;BME280;26998;48.714;9.414;2022-08-02T10:30:58;98944.34;;;26.65;54.48
41264;BME280;26998;48.714;9.414;2022-08-02T10:33:32;98932.91;;;26.77;54.37
41264;BME280;26998;48.714;9.414;2022-08-02T10:36:01;98932.50;;;26.84;53.09
41264;BME280;26998;48.714;9.414;2022-08-02T10:38:33;98927.19;;;26.60;52.99
41264;BME280;26998;48.714;9.414;2022-08-02T10:41:01;98934.06;;;27.17;50.95
41264;BME280;26998;48.714;9.414;2022-08-02T10:49:12;98924.50;;;27.43;49.63
41264;BME280;26998;48.714;9.414;2022-08-02T10:54:32;98924.66;;;27.60;49.90
41264;BME280;26998;48.714;9.414;2022-08-02T10:57:00;98919.63;;;27.39;50.22
41264;BME280;26998;48.714;9.414;2022-08-02T10:59:31;98924.81;;;27.13;51.99
41264;BME280;26998;48.714;9.414;2022-08-02T11:02:05;98917.28;;;27.05;47.72
41264;BME280;26998;48.714;9.414;2022-08-02T11:07:06;98919.91;;;27.88;45.39
41264;BME280;26998;48.714;9.414;2022-08-02T11:09:33;98915.81;;;27.99;46.71
41264;BME280;26998;48.714;9.414;2022-08-02T11:12:11;98915.00;;;27.62;45.28
41264;BME280;26998;48.714;9.414;2022-08-02T11:14:59;98903.66;;;27.42;46.93
41264;BME280;26998;48.714;9.414;2022-08-02T11:17:26;98898.84;;;27.61;47.02
41264;BME280;26998;48.714;9.414;2022-08-02T11:20:12;98898.59;;;27.71;47.83
41264;BME280;26998;48.714;9.414;2022-08-02T11:22:40;98900.78;;;27.60;46.51
41264;BME280;26998;48.714;9.414;2022-08-02T11:27:47;98893.69;;;27.46;45.90
41264;BME280;26998;48.714;9.414;2022-08-02T11:30:15;98900.19;;;26.94;45.10
41264;BME280;26998;48.714;9.414;2022-08-02T11:32:41;98902.22;;;27.44;44.11
41264;BME280;26998;48.714;9.414;2022-08-02T11:35:10;98891.66;;;27.51;45.27
41264;BME280;26998;48.714;9.414;2022-08-02T11:37:40;98887.63;;;27.21;46.80
41264;BME280;26998;48.714;9.414;2022-08-02T11:40:15;98893.81;;;27.77;45.69
41264;BME280;26998;48.714;9.414;2022-08-02T11:42:46;98891.16;;;28.08;43.75
41264;BME280;26998;48.714;9.414;2022-08-02T11:45:15;98895.81;;;28.30;42.13
41264;BME280;26998;48.714;9.414;2022-08-02T11:47:48;98887.09;;;28.05;43.43
41264;BME280;26998;48.714;9.414;2022-08-02T11:50:16;98882.16;;;27.94;42.08
41264;BME280;26998;48.714;9.414;2022-08-02T11:52:43;98880.63;;;28.55;42.74
41264;BME280;26998;48.714;9.414;2022-08-02T11:55:10;98886.09;;;28.24;42.89
41264;BME280;26998;48.714;9.414;2022-08-02T11:57:37;98893.69;;;27.82;41.08
41264;BME280;26998;48.714;9.414;2022-08-02T12:00:24;98887.41;;;27.81;41.23
41264;BME280;26998;48.714;9.414;2022-08-02T12:02:56;98886.84;;;28.16;41.71
41264;BME280;26998;48.714;9.414;2022-08-02T12:05:22;98880.19;;;27.85;40.85
41264;BME280;26998;48.714;9.414;2022-08-02T12:08:09;98882.81;;;28.13;40.91
41264;BME280;26998;48.714;9.414;2022-08-02T12:10:46;98880.25;;;28.17;41.53
41264;BME280;26998;48.714;9.414;2022-08-02T12:13:14;98878.59;;;27.93;41.76
41264;BME280;26998;48.714;9.414;2022-08-02T12:15:42;98875.19;;;28.10;42.05
41264;BME280;26998;48.714;9.414;2022-08-02T12:20:42;98878.81;;;28.50;40.74
41264;BME280;26998;48.714;9.414;2022-08-02T12:23:10;98876.13;;;28.59;39.59
41264;BME280;26998;48.714;9.414;2022-08-02T12:25:39;98884.84;;;27.85;39.47
41264;BME280;26998;48.714;9.414;2022-08-02T12:28:16;98877.44;;;28.08;39.82
41264;BME280;26998;48.714;9.414;2022-08-02T12:30:51;98877.78;;;28.69;39.57
41264;BME280;26998;48.714;9.414;2022-08-02T12:33:19;98880.09;;;28.44;38.91
41264;BME280;26998;48.714;9.414;2022-08-02T12:35:46;98876.72;;;28.25;39.65
41264;BME280;26998;48.714;9.414;2022-08-02T12:38:12;98867.13;;;28.14;40.87
41264;BME280;26998;48.714;9.414;2022-08-02T12:40:39;98877.50;;;28.25;39.75
41264;BME280;26998;48.714;9.414;2022-08-02T12:43:07;98879.66;;;28.06;39.82
41264;BME280;26998;48.714;9.414;2022-08-02T12:45:48;98869.56;;;27.93;40.19
41264;BME280;26998;48.714;9.414;2022-08-02T12:48:28;98860.13;;;28.07;40.71
41264;BME280;26998;48.714;9.414;2022-08-02T12:51:36;98857.22;;;28.35;39.75
41264;BME280;26998;48.714;9.414;2022-08-02T12:54:26;98855.09;;;28.54;39.88
41264;BME280;26998;48.714;9.414;2022-08-02T12:57:09;98851.06;;;28.29;39.31
41264;BME280;26998;48.714;9.414;2022-08-02T12:59:38;98849.78;;;28.36;38.99
41264;BME280;26998;48.714;9.414;2022-08-02T13:02:08;98837.56;;;28.42;39.84
41264;BME280;26998;48.714;9.414;2022-08-02T13:04:36;98843.06;;;28.90;39.18
41264;BME280;26998;48.714;9.414;2022-08-02T13:07:03;98837.97;;;29.15;39.78
41264;BME280;26998;48.714;9.414;2022-08-02T13:09:40;98844.63;;;29.14;38.62
41264;BME280;26998;48.714;9.414;2022-08-02T13:12:07;98841.06;;;29.13;39.04
41264;BME280;26998;48.714;9.414;2022-08-02T13:14:34;98844.53;;;28.48;39.50
41264;BME280;26998;48.714;9.414;2022-08-02T13:17:10;98840.63;;;28.40;39.63
41264;BME280;26998;48.714;9.414;2022-08-02T13:19:37;98833.78;;;28.38;39.81
41264;BME280;26998;48.714;9.414;2022-08-02T13:22:04;98834.19;;;28.45;39.91
41264;BME280;26998;48.714;9.414;2022-08-02T13:24:32;98832.28;;;28.63;39.18
41264;BME280;26998;48.714;9.414;2022-08-02T13:27:19;98844.47;;;28.70;38.28
41264;BME280;26998;48.714;9.414;2022-08-02T13:29:49;98831.94;;;28.55;39.03
41264;BME280;26998;48.714;9.414;2022-08-02T13:32:16;98826.28;;;29.00;39.32
41264;BME280;26998;48.714;9.414;2022-08-02T13:34:44;98826.91;;;28.97;38.69
41264;BME280;26998;48.714;9.414;2022-08-02T13:37:11;98835.25;;;28.75;38.60
41264;BME280;26998;48.714;9.414;2022-08-02T13:39:37;98825.59;;;28.46;38.84